sensor_id;sensor_type;location;lat;lon;timestamp;P1;durP1;ratioP1;P2;durP2;ratioP2
17790;SDS011;9019;48.132;-1.210;2023-07-31T00:02:21;12.80;;;5.55;;
17790;SDS011;9019;48.132;-1.210;2023-07-31T00:04:48;12.52;;;4.80;;
17790;SDS011;9019;48.132;-1.210;2023-07-31T00:07:15;14.77;;;5.55;;
17790;SDS011;9019;48.132;-1.210;2023-07-31T00:09:43;11.93;;;4.85;;
17790;SDS011;9019;48.132;-1.210;2023-07-31T00:12:10;16.70;;;5.50;;
17790;SDS011;9019;48.132;-1.210;2023-07-31T00:14:39;15.00;;;5.47;;
17790;SDS011;9019;48.132;-1.210;2023-07-31T00:17:06;12.48;;;5.35;;
17790;SDS011;9019;48.132;-1.210;2023-07-31T00:19:33;16.90;;;5.47;;
17790;SDS011;9019;48.132;-1.210;2023-07-31T00:22:01;16.80;;;5.50;;
17790;SDS011;9019;48.132;-1.210;2023-07-31T00:24:28;10.80;;;5.35;;
17790;SDS011;9019;48.132;-1.210;2023-07-31T00:26:55;11.55;;;5.28;;
17790;SDS011;9019;48.132;-1.210;2023-07-31T00:29:22;19.35;;;5.90;;
17790;SDS011;9019;48.132;-1.210;2023-07-31T00:31:51;13.18;;;5.53;;
17790;SDS011;9019;48.132;-1.210;2023-07-31T00:34:18;13.75;;;5.40;;
17790;SDS011;9019;48.132;-1.210;2023-07-31T00:36:45;16.17;;;5.90;;
17790;SDS011;9019;48.132;-1.210;2023-07-31T00:39:12;12.93;;;6.32;;
17790;SDS011;9019;48.132;-1.210;2023-07-31T00:41:40;14.45;;;5.15;;
17790;SDS011;9019;48.132;-1.210;2023-07-31T00:44:07;13.45;;;5.75;;
17790;SDS011;9019;48.132;-1.210;2023-07-31T00:46:34;16.15;;;5.38;;
17790;SDS011;9019;48.132;-1.210;2023-07-31T00:49:03;19.60;;;5.82;;
17790;SDS011;9019;48.132;-1.210;2023-07-31T00:51:30;21.42;;;5.80;;
17790;SDS011;9019;48.132;-1.210;2023-07-31T00:53:57;19.55;;;5.57;;
17790;SDS011;9019;48.132;-1.210;2023-07-31T00:56:25;14.07;;;6.05;;
17790;SDS011;9019;48.132;-1.210;2023-07-31T00:58:52;13.05;;;5.90;;
17790;SDS011;9019;48.132;-1.210;2023-07-31T01:01:20;16.98;;;5.70;;
17790;SDS011;9019;48.132;-1.210;2023-07-31T01:03:48;16.80;;;5.90;;
17790;SDS011;9019;48.132;-1.210;2023-07-31T01:06:21;14.70;;;5.57;;
17790;SDS011;9019;48.132;-1.210;2023-07-31T01:08:51;15.35;;;6.10;;
17790;SDS011;9019;48.132;-1.210;2023-07-31T01:11:22;16.25;;;6.10;;
17790;SDS011;9019;48.132;-1.210;2023-07-31T01:13:51;17.70;;;6.03;;
17790;SDS011;9019;48.132;-1.210;2023-07-31T01:16:21;14.10;;;6.03;;
17790;SDS011;9019;48.132;-1.210;2023-07-31T01:18:48;15.63;;;6.18;;
17790;SDS011;9019;48.132;-1.210;2023-07-31T01:21:23;15.30;;;5.63;;
17790;SDS011;9019;48.132;-1.210;2023-07-31T01:24:03;15.70;;;6.00;;
17790;SDS011;9019;48.132;-1.210;2023-07-31T01:26:36;18.95;;;6.13;;
17790;SDS011;9019;48.132;-1.210;2023-07-31T01:29:07;16.92;;;6.20;;
17790;SDS011;9019;48.132;-1.210;2023-07-31T01:31:35;15.70;;;6.50;;
17790;SDS011;9019;48.132;-1.210;2023-07-31T01:34:03;17.60;;;6.50;;
17790;SDS011;9019;48.132;-1.210;2023-07-31T01:36:31;17.20;;;6.63;;
17790;SDS011;9019;48.132;-1.210;2023-07-31T01:38:58;16.92;;;5.65;;
17790;SDS011;9019;48.132;-1.210;2023-07-31T01:41:25;15.65;;;6.53;;
17790;SDS011;9019;48.132;-1.210;2023-07-31T01:43:54;13.68;;;5.38;;
17790;SDS011;9019;48.132;-1.210;2023-07-31T01:46:21;18.27;;;5.97;;
17790;SDS011;9019;48.132;-1.210;2023-07-31T01:48:48;16.33;;;6.28;;
17790;SDS011;9019;48.132;-1.210;2023-07-31T01:51:15;12.88;;;5.22;;
17790;SDS011;9019;48.132;-1.210;2023-07-31T01:53:43;15.27;;;5.80;;
17790;SDS011;9019;48.132;-1.210;2023-07-31T01:56:10;16.80;;;5.90;;
17790;SDS011;9019;48.132;-1.210;2023-07-31T01:58:37;12.73;;;5.47;;
17790;SDS011;9019;48.132;-1.210;2023-07-31T02:01:05;16.52;;;5.93;;
17790;SDS011;9019;48.132;-1.210;2023-07-31T02:03:33;17.48;;;6.22;;
17790;SDS011;9019;48.132;-1.210;2023-07-31T02:06:00;12.63;;;5.63;;
17790;SDS011;9019;48.132;-1.210;2023-07-31T02:08:27;14.90;;;5.70;;
17790;SDS011;9019;48.132;-1.210;2023-07-31T02:10:54;17.63;;;6.22;;
17790;SDS011;9019;48.132;-1.210;2023-07-31T02:13:21;17.10;;;6.43;;
17790;SDS011;9019;48.132;-1.210;2023-07-31T02:15:49;16.52;;;5.82;;
17790;SDS011;9019;48.132;-1.210;2023-07-31T02:18:18;16.63;;;6.25;;
17790;SDS011;9019;48.132;-1.210;2023-07-31T02:20:48;15.05;;;5.78;;
17790;SDS011;9019;48.132;-1.210;2023-07-31T02:23:18;14.70;;;5.63;;
17790;SDS011;9019;48.132;-1.210;2023-07-31T02:25:45;20.98;;;6.22;;
17790;SDS011;9019;48.132;-1.210;2023-07-31T02:28:13;16.02;;;6.20;;
17790;SDS011;9019;48.132;-1.210;2023-07-31T02:30:43;17.25;;;6.43;;
17790;SDS011;9019;48.132;-1.210;2023-07-31T02:33:11;15.38;;;5.88;;
17790;SDS011;9019;48.132;-1.210;2023-07-31T02:35:39;16.75;;;5.55;;
17790;SDS011;9019;48.132;-1.210;2023-07-31T02:38:07;12.13;;;5.53;;
17790;SDS011;9019;48.132;-1.210;2023-07-31T02:40:34;17.10;;;6.20;;
17790;SDS011;9019;48.132;-1.210;2023-07-31T02:43:01;17.77;;;6.55;;
17790;SDS011;9019;48.132;-1.210;2023-07-31T02:45:29;18.42;;;6.50;;
17790;SDS011;9019;48.132;-1.210;2023-07-31T02:47:56;15.20;;;6.22;;
17790;SDS011;9019;48.132;-1.210;2023-07-31T02:50:23;15.15;;;6.10;;
17790;SDS011;9019;48.132;-1.210;2023-07-31T02:52:52;14.85;;;6.03;;
17790;SDS011;9019;48.132;-1.210;2023-07-31T02:55:19;17.33;;;6.10;;
17790;SDS011;9019;48.132;-1.210;2023-07-31T02:57:46;14.77;;;5.80;;
17790;SDS011;9019;48.132;-1.210;2023-07-31T03:00:14;15.98;;;5.78;;
17790;SDS011;9019;48.132;-1.210;2023-07-31T03:02:41;12.45;;;6.28;;
17790;SDS011;9019;48.132;-1.210;2023-07-31T03:05:08;14.15;;;6.35;;
17790;SDS011;9019;48.132;-1.210;2023-07-31T03:07:36;14.68;;;5.80;;
17790;SDS011;9019;48.132;-1.210;2023-07-31T03:10:05;14.88;;;6.43;;
17790;SDS011;9019;48.132;-1.210;2023-07-31T03:12:32;14.23;;;5.75;;
17790;SDS011;9019;48.132;-1.210;2023-07-31T03:15:00;16.75;;;6.15;;
17790;SDS011;9019;48.132;-1.210;2023-07-31T03:17:27;14.63;;;6.00;;
17790;SDS011;9019;48.132;-1.210;2023-07-31T03:19:54;16.98;;;6.57;;
17790;SDS011;9019;48.132;-1.210;2023-07-31T03:22:22;15.40;;;5.80;;
17790;SDS011;9019;48.132;-1.210;2023-07-31T03:24:49;18.13;;;6.03;;
17790;SDS011;9019;48.132;-1.210;2023-07-31T03:27:18;12.93;;;5.82;;
17790;SDS011;9019;48.132;-1.210;2023-07-31T03:29:45;15.50;;;6.18;;
17790;SDS011;9019;48.132;-1.210;2023-07-31T03:32:14;14.55;;;5.97;;
17790;SDS011;9019;48.132;-1.210;2023-07-31T03:34:42;18.90;;;6.28;;
17790;SDS011;9019;48.132;-1.210;2023-07-31T03:37:09;14.90;;;6.03;;
17790;SDS011;9019;48.132;-1.210;2023-07-31T03:39:36;15.93;;;6.15;;
17790;SDS011;9019;48.132;-1.210;2023-07-31T03:42:04;13.65;;;5.72;;
17790;SDS011;9019;48.132;-1.210;2023-07-31T03:44:32;12.18;;;6.20;;
17790;SDS011;9019;48.132;-1.210;2023-07-31T03:47:00;14.35;;;6.25;;
17790;SDS011;9019;48.132;-1.210;2023-07-31T03:49:27;16.25;;;5.50;;
17790;SDS011;9019;48.132;-1.210;2023-07-31T03:51:55;16.65;;;5.68;;
17790;SDS011;9019;48.132;-1.210;2023-07-31T03:54:22;15.85;;;5.80;;
17790;SDS011;9019;48.132;-1.210;2023-07-31T03:56:49;16.02;;;6.40;;
17790;SDS011;9019;48.132;-1.210;2023-07-31T03:59:16;15.90;;;5.93;;
17790;SDS011;9019;48.132;-1.210;2023-07-31T04:01:45;18.10;;;6.30;;
17790;SDS011;9019;48.132;-1.210;2023-07-31T04:04:12;13.68;;;5.78;;
17790;SDS011;9019;48.132;-1.210;2023-07-31T04:06:40;15.68;;;6.45;;
17790;SDS011;9019;48.132;-1.210;2023-07-31T04:09:07;19.63;;;6.50;;
17790;SDS011;9019;48.132;-1.210;2023-07-31T04:11:34;18.65;;;6.15;;
17790;SDS011;9019;48.132;-1.210;2023-07-31T04:14:01;19.10;;;6.20;;
17790;SDS011;9019;48.132;-1.210;2023-07-31T04:16:28;14.95;;;6.00;;
17790;SDS011;9019;48.132;-1.210;2023-07-31T04:18:57;15.88;;;6.07;;
17790;SDS011;9019;48.132;-1.210;2023-07-31T04:21:24;16.10;;;5.95;;
17790;SDS011;9019;48.132;-1.210;2023-07-31T04:23:51;16.95;;;6.05;;
17790;SDS011;9019;48.132;-1.210;2023-07-31T04:26:21;15.27;;;6.53;;
17790;SDS011;9019;48.132;-1.210;2023-07-31T04:28:48;14.48;;;6.38;;
17790;SDS011;9019;48.132;-1.210;2023-07-31T04:31:15;14.98;;;6.07;;
17790;SDS011;9019;48.132;-1.210;2023-07-31T04:33:42;18.50;;;6.50;;
17790;SDS011;9019;48.132;-1.210;2023-07-31T04:36:11;17.60;;;5.78;;
17790;SDS011;9019;48.132;-1.210;2023-07-31T04:38:38;15.25;;;6.40;;
17790;SDS011;9019;48.132;-1.210;2023-07-31T04:41:06;15.68;;;5.93;;
17790;SDS011;9019;48.132;-1.210;2023-07-31T04:43:33;20.95;;;5.93;;
17790;SDS011;9019;48.132;-1.210;2023-07-31T04:46:04;16.23;;;6.50;;
17790;SDS011;9019;48.132;-1.210;2023-07-31T04:48:31;13.90;;;6.10;;
17790;SDS011;9019;48.132;-1.210;2023-07-31T04:50:58;13.18;;;5.60;;
17790;SDS011;9019;48.132;-1.210;2023-07-31T04:53:27;11.00;;;5.55;;
17790;SDS011;9019;48.132;-1.210;2023-07-31T04:55:54;17.60;;;6.15;;
17790;SDS011;9019;48.132;-1.210;2023-07-31T04:58:21;15.38;;;5.90;;
17790;SDS011;9019;48.132;-1.210;2023-07-31T05:00:49;13.60;;;5.60;;
17790;SDS011;9019;48.132;-1.210;2023-07-31T05:03:17;14.02;;;5.75;;
17790;SDS011;9019;48.132;-1.210;2023-07-31T05:05:44;17.20;;;6.30;;
17790;SDS011;9019;48.132;-1.210;2023-07-31T05:08:11;15.35;;;5.75;;
17790;SDS011;9019;48.132;-1.210;2023-07-31T05:10:40;17.55;;;6.40;;
17790;SDS011;9019;48.132;-1.210;2023-07-31T05:13:07;15.55;;;6.25;;
17790;SDS011;9019;48.132;-1.210;2023-07-31T05:15:34;18.73;;;5.88;;
17790;SDS011;9019;48.132;-1.210;2023-07-31T05:18:01;14.30;;;5.97;;
17790;SDS011;9019;48.132;-1.210;2023-07-31T05:20:29;16.77;;;6.05;;
17790;SDS011;9019;48.132;-1.210;2023-07-31T05:22:56;15.05;;;5.82;;
17790;SDS011;9019;48.132;-1.210;2023-07-31T05:25:24;14.35;;;5.72;;
17790;SDS011;9019;48.132;-1.210;2023-07-31T05:27:52;16.85;;;5.90;;
17790;SDS011;9019;48.132;-1.210;2023-07-31T05:30:20;14.38;;;5.13;;
17790;SDS011;9019;48.132;-1.210;2023-07-31T05:32:47;11.25;;;4.95;;
17790;SDS011;9019;48.132;-1.210;2023-07-31T05:35:14;10.50;;;5.82;;
17790;SDS011;9019;48.132;-1.210;2023-07-31T05:37:41;12.13;;;5.88;;
17790;SDS011;9019;48.132;-1.210;2023-07-31T05:40:09;13.10;;;5.90;;
17790;SDS011;9019;48.132;-1.210;2023-07-31T05:42:36;12.00;;;5.43;;
17790;SDS011;9019;48.132;-1.210;2023-07-31T05:45:06;12.70;;;5.47;;
17790;SDS011;9019;48.132;-1.210;2023-07-31T05:47:33;11.75;;;5.50;;
17790;SDS011;9019;48.132;-1.210;2023-07-31T05:50:01;14.07;;;5.43;;
17790;SDS011;9019;48.132;-1.210;2023-07-31T05:52:28;12.13;;;5.53;;
17790;SDS011;9019;48.132;-1.210;2023-07-31T05:54:55;15.35;;;5.43;;
17790;SDS011;9019;48.132;-1.210;2023-07-31T05:57:22;14.85;;;5.82;;
17790;SDS011;9019;48.132;-1.210;2023-07-31T05:59:49;13.77;;;5.15;;
17790;SDS011;9019;48.132;-1.210;2023-07-31T06:02:19;11.98;;;5.15;;
17790;SDS011;9019;48.132;-1.210;2023-07-31T06:04:47;13.25;;;5.72;;
17790;SDS011;9019;48.132;-1.210;2023-07-31T06:07:14;13.18;;;5.47;;
17790;SDS011;9019;48.132;-1.210;2023-07-31T06:09:41;13.10;;;5.13;;
17790;SDS011;9019;48.132;-1.210;2023-07-31T06:12:09;13.75;;;5.60;;
17790;SDS011;9019;48.132;-1.210;2023-07-31T06:14:36;14.35;;;5.72;;
17790;SDS011;9019;48.132;-1.210;2023-07-31T06:17:04;10.93;;;5.05;;
17790;SDS011;9019;48.132;-1.210;2023-07-31T06:19:33;12.13;;;5.30;;
17790;SDS011;9019;48.132;-1.210;2023-07-31T06:22:00;17.10;;;6.07;;
17790;SDS011;9019;48.132;-1.210;2023-07-31T06:24:27;15.18;;;5.53;;
17790;SDS011;9019;48.132;-1.210;2023-07-31T06:26:55;12.38;;;5.38;;
17790;SDS011;9019;48.132;-1.210;2023-07-31T06:29:22;13.30;;;5.22;;
17790;SDS011;9019;48.132;-1.210;2023-07-31T06:31:49;13.43;;;5.30;;
17790;SDS011;9019;48.132;-1.210;2023-07-31T06:34:17;12.93;;;5.47;;
17790;SDS011;9019;48.132;-1.210;2023-07-31T06:36:45;10.75;;;5.22;;
17790;SDS011;9019;48.132;-1.210;2023-07-31T06:39:13;15.38;;;5.05;;
17790;SDS011;9019;48.132;-1.210;2023-07-31T06:41:40;14.70;;;5.47;;
17790;SDS011;9019;48.132;-1.210;2023-07-31T06:44:07;13.07;;;5.55;;
17790;SDS011;9019;48.132;-1.210;2023-07-31T06:46:35;11.55;;;5.07;;
17790;SDS011;9019;48.132;-1.210;2023-07-31T06:49:02;13.45;;;5.47;;
17790;SDS011;9019;48.132;-1.210;2023-07-31T06:51:29;11.48;;;4.95;;
17790;SDS011;9019;48.132;-1.210;2023-07-31T06:53:58;11.60;;;4.53;;
17790;SDS011;9019;48.132;-1.210;2023-07-31T06:56:26;12.70;;;5.00;;
17790;SDS011;9019;48.132;-1.210;2023-07-31T06:58:53;12.40;;;5.40;;
17790;SDS011;9019;48.132;-1.210;2023-07-31T07:01:20;11.43;;;4.78;;
17790;SDS011;9019;48.132;-1.210;2023-07-31T07:03:47;12.75;;;4.88;;
17790;SDS011;9019;48.132;-1.210;2023-07-31T07:06:15;12.23;;;5.18;;
17790;SDS011;9019;48.132;-1.210;2023-07-31T07:08:43;13.80;;;5.35;;
17790;SDS011;9019;48.132;-1.210;2023-07-31T07:11:12;13.52;;;5.22;;
17790;SDS011;9019;48.132;-1.210;2023-07-31T07:13:39;17.17;;;4.70;;
17790;SDS011;9019;48.132;-1.210;2023-07-31T07:16:06;13.35;;;4.93;;
17790;SDS011;9019;48.132;-1.210;2023-07-31T07:18:35;11.10;;;4.40;;
17790;SDS011;9019;48.132;-1.210;2023-07-31T07:21:02;12.65;;;4.65;;
17790;SDS011;9019;48.132;-1.210;2023-07-31T07:23:29;10.40;;;4.30;;
17790;SDS011;9019;48.132;-1.210;2023-07-31T07:25:57;14.52;;;4.72;;
17790;SDS011;9019;48.132;-1.210;2023-07-31T07:28:25;12.65;;;4.60;;
17790;SDS011;9019;48.132;-1.210;2023-07-31T07:30:53;11.40;;;4.38;;
17790;SDS011;9019;48.132;-1.210;2023-07-31T07:33:21;9.55;;;4.13;;
17790;SDS011;9019;48.132;-1.210;2023-07-31T07:35:48;16.08;;;4.70;;
17790;SDS011;9019;48.132;-1.210;2023-07-31T07:38:15;12.90;;;4.28;;
17790;SDS011;9019;48.132;-1.210;2023-07-31T07:40:44;11.73;;;3.65;;
17790;SDS011;9019;48.132;-1.210;2023-07-31T07:43:11;6.95;;;4.05;;
17790;SDS011;9019;48.132;-1.210;2023-07-31T07:45:40;9.93;;;4.63;;
17790;SDS011;9019;48.132;-1.210;2023-07-31T07:48:07;7.82;;;3.58;;
17790;SDS011;9019;48.132;-1.210;2023-07-31T07:50:35;10.30;;;4.15;;
17790;SDS011;9019;48.132;-1.210;2023-07-31T07:53:02;9.52;;;4.28;;
17790;SDS011;9019;48.132;-1.210;2023-07-31T07:55:30;10.63;;;4.10;;
17790;SDS011;9019;48.132;-1.210;2023-07-31T07:57:57;11.30;;;4.40;;
17790;SDS011;9019;48.132;-1.210;2023-07-31T08:00:24;9.40;;;4.15;;
17790;SDS011;9019;48.132;-1.210;2023-07-31T08:02:53;10.85;;;4.10;;
17790;SDS011;9019;48.132;-1.210;2023-07-31T08:05:22;12.35;;;4.03;;
17790;SDS011;9019;48.132;-1.210;2023-07-31T08:07:49;9.88;;;4.10;;
17790;SDS011;9019;48.132;-1.210;2023-07-31T08:10:16;9.70;;;3.72;;
17790;SDS011;9019;48.132;-1.210;2023-07-31T08:12:44;7.43;;;3.95;;
17790;SDS011;9019;48.132;-1.210;2023-07-31T08:15:11;8.02;;;3.80;;
17790;SDS011;9019;48.132;-1.210;2023-07-31T08:17:38;11.00;;;4.55;;
17790;SDS011;9019;48.132;-1.210;2023-07-31T08:20:08;7.55;;;3.65;;
17790;SDS011;9019;48.132;-1.210;2023-07-31T08:22:35;11.50;;;3.65;;
17790;SDS011;9019;48.132;-1.210;2023-07-31T08:25:03;7.65;;;3.55;;
17790;SDS011;9019;48.132;-1.210;2023-07-31T08:27:31;8.52;;;3.60;;
17790;SDS011;9019;48.132;-1.210;2023-07-31T08:29:58;9.40;;;4.03;;
17790;SDS011;9019;48.132;-1.210;2023-07-31T08:32:25;8.57;;;3.58;;
17790;SDS011;9019;48.132;-1.210;2023-07-31T08:34:52;7.95;;;3.50;;
17790;SDS011;9019;48.132;-1.210;2023-07-31T08:37:21;8.70;;;3.67;;
17790;SDS011;9019;48.132;-1.210;2023-07-31T08:39:48;9.85;;;3.50;;
17790;SDS011;9019;48.132;-1.210;2023-07-31T08:42:15;9.73;;;3.70;;
17790;SDS011;9019;48.132;-1.210;2023-07-31T08:44:42;12.48;;;3.67;;
17790;SDS011;9019;48.132;-1.210;2023-07-31T08:47:10;7.05;;;3.53;;
17790;SDS011;9019;48.132;-1.210;2023-07-31T08:49:37;7.20;;;3.15;;
17790;SDS011;9019;48.132;-1.210;2023-07-31T08:52:05;10.13;;;3.13;;
17790;SDS011;9019;48.132;-1.210;2023-07-31T08:54:34;8.57;;;3.25;;
17790;SDS011;9019;48.132;-1.210;2023-07-31T08:57:02;8.38;;;3.33;;
17790;SDS011;9019;48.132;-1.210;2023-07-31T08:59:30;6.70;;;3.28;;
17790;SDS011;9019;48.132;-1.210;2023-07-31T09:01:57;5.90;;;2.85;;
17790;SDS011;9019;48.132;-1.210;2023-07-31T09:04:26;8.75;;;3.30;;
17790;SDS011;9019;48.132;-1.210;2023-07-31T09:06:54;11.10;;;4.25;;
17790;SDS011;9019;48.132;-1.210;2023-07-31T09:09:24;10.85;;;5.78;;
17790;SDS011;9019;48.132;-1.210;2023-07-31T09:11:52;6.45;;;3.88;;
17790;SDS011;9019;48.132;-1.210;2023-07-31T09:14:20;8.32;;;2.80;;
17790;SDS011;9019;48.132;-1.210;2023-07-31T09:16:51;5.55;;;2.70;;
17790;SDS011;9019;48.132;-1.210;2023-07-31T09:19:24;7.55;;;2.92;;
17790;SDS011;9019;48.132;-1.210;2023-07-31T09:21:52;7.78;;;2.45;;
17790;SDS011;9019;48.132;-1.210;2023-07-31T09:24:24;6.32;;;2.40;;
17790;SDS011;9019;48.132;-1.210;2023-07-31T09:26:54;4.82;;;2.20;;
17790;SDS011;9019;48.132;-1.210;2023-07-31T09:29:22;4.32;;;1.90;;
17790;SDS011;9019;48.132;-1.210;2023-07-31T09:31:50;7.20;;;2.38;;
17790;SDS011;9019;48.132;-1.210;2023-07-31T09:34:17;5.22;;;2.63;;
17790;SDS011;9019;48.132;-1.210;2023-07-31T09:36:45;3.75;;;2.22;;
17790;SDS011;9019;48.132;-1.210;2023-07-31T09:39:13;4.60;;;2.20;;
17790;SDS011;9019;48.132;-1.210;2023-07-31T09:41:42;3.85;;;2.70;;
17790;SDS011;9019;48.132;-1.210;2023-07-31T09:44:11;7.88;;;3.35;;
17790;SDS011;9019;48.132;-1.210;2023-07-31T09:46:38;6.07;;;2.30;;
17790;SDS011;9019;48.132;-1.210;2023-07-31T09:49:06;4.03;;;2.05;;
17790;SDS011;9019;48.132;-1.210;2023-07-31T09:51:35;3.53;;;2.17;;
17790;SDS011;9019;48.132;-1.210;2023-07-31T09:54:04;4.20;;;2.25;;
17790;SDS011;9019;48.132;-1.210;2023-07-31T09:56:31;3.30;;;2.50;;
17790;SDS011;9019;48.132;-1.210;2023-07-31T09:58:59;3.92;;;2.30;;
17790;SDS011;9019;48.132;-1.210;2023-07-31T10:01:28;4.85;;;2.58;;
17790;SDS011;9019;48.132;-1.210;2023-07-31T10:03:55;5.18;;;2.63;;
17790;SDS011;9019;48.132;-1.210;2023-07-31T10:06:23;5.43;;;2.50;;
17790;SDS011;9019;48.132;-1.210;2023-07-31T10:08:51;5.53;;;2.55;;
17790;SDS011;9019;48.132;-1.210;2023-07-31T10:11:18;4.57;;;2.38;;
17790;SDS011;9019;48.132;-1.210;2023-07-31T10:13:46;4.00;;;2.22;;
17790;SDS011;9019;48.132;-1.210;2023-07-31T10:16:13;4.57;;;2.38;;
17790;SDS011;9019;48.132;-1.210;2023-07-31T10:18:43;5.18;;;2.40;;
17790;SDS011;9019;48.132;-1.210;2023-07-31T10:21:10;3.80;;;2.53;;
17790;SDS011;9019;48.132;-1.210;2023-07-31T10:23:38;4.32;;;2.47;;
17790;SDS011;9019;48.132;-1.210;2023-07-31T10:26:05;3.70;;;2.40;;
17790;SDS011;9019;48.132;-1.210;2023-07-31T10:28:34;5.00;;;2.83;;
17790;SDS011;9019;48.132;-1.210;2023-07-31T10:31:03;8.43;;;3.13;;
17790;SDS011;9019;48.132;-1.210;2023-07-31T10:33:31;5.25;;;3.15;;
17790;SDS011;9019;48.132;-1.210;2023-07-31T10:36:15;6.75;;;3.40;;
17790;SDS011;9019;48.132;-1.210;2023-07-31T10:38:43;6.25;;;3.70;;
17790;SDS011;9019;48.132;-1.210;2023-07-31T10:41:11;7.45;;;3.67;;
17790;SDS011;9019;48.132;-1.210;2023-07-31T10:43:38;6.47;;;3.80;;
17790;SDS011;9019;48.132;-1.210;2023-07-31T10:46:06;7.57;;;3.38;;
17790;SDS011;9019;48.132;-1.210;2023-07-31T10:48:34;7.15;;;3.88;;
17790;SDS011;9019;48.132;-1.210;2023-07-31T10:51:06;7.32;;;3.97;;
17790;SDS011;9019;48.132;-1.210;2023-07-31T10:53:36;4.75;;;3.60;;
17790;SDS011;9019;48.132;-1.210;2023-07-31T10:56:04;7.93;;;3.95;;
17790;SDS011;9019;48.132;-1.210;2023-07-31T10:58:33;6.95;;;3.60;;
17790;SDS011;9019;48.132;-1.210;2023-07-31T11:01:01;7.97;;;3.88;;
17790;SDS011;9019;48.132;-1.210;2023-07-31T11:03:42;6.22;;;3.80;;
17790;SDS011;9019;48.132;-1.210;2023-07-31T11:06:09;6.85;;;3.67;;
17790;SDS011;9019;48.132;-1.210;2023-07-31T11:08:42;10.45;;;4.15;;
17790;SDS011;9019;48.132;-1.210;2023-07-31T11:11:10;10.55;;;4.50;;
17790;SDS011;9019;48.132;-1.210;2023-07-31T11:13:42;9.45;;;3.90;;
17790;SDS011;9019;48.132;-1.210;2023-07-31T11:16:12;7.35;;;4.10;;
17790;SDS011;9019;48.132;-1.210;2023-07-31T11:18:40;7.97;;;3.88;;
17790;SDS011;9019;48.132;-1.210;2023-07-31T11:21:07;5.65;;;3.33;;
17790;SDS011;9019;48.132;-1.210;2023-07-31T11:23:36;7.68;;;3.25;;
17790;SDS011;9019;48.132;-1.210;2023-07-31T11:26:06;8.25;;;4.32;;
17790;SDS011;9019;48.132;-1.210;2023-07-31T11:28:34;5.75;;;3.55;;
17790;SDS011;9019;48.132;-1.210;2023-07-31T11:31:04;5.78;;;3.45;;
17790;SDS011;9019;48.132;-1.210;2023-07-31T11:33:31;7.43;;;3.50;;
17790;SDS011;9019;48.132;-1.210;2023-07-31T11:35:59;5.55;;;3.45;;
17790;SDS011;9019;48.132;-1.210;2023-07-31T11:38:27;5.82;;;3.28;;
17790;SDS011;9019;48.132;-1.210;2023-07-31T11:40:54;6.63;;;3.60;;
17790;SDS011;9019;48.132;-1.210;2023-07-31T11:43:23;5.97;;;3.30;;
17790;SDS011;9019;48.132;-1.210;2023-07-31T11:45:53;4.72;;;3.22;;
17790;SDS011;9019;48.132;-1.210;2023-07-31T11:48:22;6.03;;;3.13;;
17790;SDS011;9019;48.132;-1.210;2023-07-31T11:50:50;4.15;;;3.30;;
17790;SDS011;9019;48.132;-1.210;2023-07-31T11:53:18;6.95;;;3.45;;
17790;SDS011;9019;48.132;-1.210;2023-07-31T11:55:46;6.60;;;3.50;;
17790;SDS011;9019;48.132;-1.210;2023-07-31T11:58:14;11.48;;;3.88;;
17790;SDS011;9019;48.132;-1.210;2023-07-31T12:00:43;8.50;;;3.55;;
17790;SDS011;9019;48.132;-1.210;2023-07-31T12:03:11;9.27;;;4.38;;
17790;SDS011;9019;48.132;-1.210;2023-07-31T12:05:38;6.68;;;4.13;;
17790;SDS011;9019;48.132;-1.210;2023-07-31T12:08:09;10.00;;;3.85;;
17790;SDS011;9019;48.132;-1.210;2023-07-31T12:10:37;8.75;;;4.25;;
17790;SDS011;9019;48.132;-1.210;2023-07-31T12:13:06;7.45;;;4.43;;
17790;SDS011;9019;48.132;-1.210;2023-07-31T12:15:36;6.95;;;3.83;;
17790;SDS011;9019;48.132;-1.210;2023-07-31T12:18:06;5.90;;;4.25;;
17790;SDS011;9019;48.132;-1.210;2023-07-31T12:20:33;9.73;;;4.65;;
17790;SDS011;9019;48.132;-1.210;2023-07-31T12:23:01;9.52;;;4.50;;
17790;SDS011;9019;48.132;-1.210;2023-07-31T12:25:28;6.25;;;4.35;;
17790;SDS011;9019;48.132;-1.210;2023-07-31T12:27:56;9.45;;;4.78;;
17790;SDS011;9019;48.132;-1.210;2023-07-31T12:30:26;8.48;;;4.32;;
17790;SDS011;9019;48.132;-1.210;2023-07-31T12:32:54;10.30;;;4.32;;
17790;SDS011;9019;48.132;-1.210;2023-07-31T12:35:22;7.25;;;3.60;;
17790;SDS011;9019;48.132;-1.210;2023-07-31T12:37:50;7.03;;;3.95;;
17790;SDS011;9019;48.132;-1.210;2023-07-31T12:40:17;9.43;;;4.00;;
17790;SDS011;9019;48.132;-1.210;2023-07-31T12:42:44;8.52;;;3.78;;
17790;SDS011;9019;48.132;-1.210;2023-07-31T12:45:12;8.32;;;3.70;;
17790;SDS011;9019;48.132;-1.210;2023-07-31T12:47:39;5.90;;;3.30;;
17790;SDS011;9019;48.132;-1.210;2023-07-31T12:50:07;7.00;;;3.83;;
17790;SDS011;9019;48.132;-1.210;2023-07-31T12:52:35;6.68;;;3.70;;
17790;SDS011;9019;48.132;-1.210;2023-07-31T12:55:03;8.75;;;4.20;;
17790;SDS011;9019;48.132;-1.210;2023-07-31T12:57:31;5.57;;;3.70;;
17790;SDS011;9019;48.132;-1.210;2023-07-31T12:59:58;7.30;;;3.83;;
17790;SDS011;9019;48.132;-1.210;2023-07-31T13:02:25;6.05;;;3.17;;
17790;SDS011;9019;48.132;-1.210;2023-07-31T13:04:52;5.55;;;3.10;;
17790;SDS011;9019;48.132;-1.210;2023-07-31T13:07:21;4.68;;;2.60;;
17790;SDS011;9019;48.132;-1.210;2023-07-31T13:09:50;5.32;;;3.20;;
17790;SDS011;9019;48.132;-1.210;2023-07-31T13:12:17;5.88;;;3.03;;
17790;SDS011;9019;48.132;-1.210;2023-07-31T13:14:44;5.10;;;3.17;;
17790;SDS011;9019;48.132;-1.210;2023-07-31T13:17:12;4.65;;;2.80;;
17790;SDS011;9019;48.132;-1.210;2023-07-31T13:19:39;5.13;;;2.90;;
17790;SDS011;9019;48.132;-1.210;2023-07-31T13:22:07;4.20;;;2.88;;
17790;SDS011;9019;48.132;-1.210;2023-07-31T13:24:34;4.40;;;2.88;;
17790;SDS011;9019;48.132;-1.210;2023-07-31T13:27:03;5.35;;;2.90;;
17790;SDS011;9019;48.132;-1.210;2023-07-31T13:29:31;3.47;;;2.60;;
17790;SDS011;9019;48.132;-1.210;2023-07-31T13:31:58;4.28;;;2.63;;
17790;SDS011;9019;48.132;-1.210;2023-07-31T13:34:25;3.47;;;2.53;;
17790;SDS011;9019;48.132;-1.210;2023-07-31T13:36:53;4.60;;;2.28;;
17790;SDS011;9019;48.132;-1.210;2023-07-31T13:39:21;5.47;;;2.60;;
17790;SDS011;9019;48.132;-1.210;2023-07-31T13:41:48;3.25;;;2.13;;
17790;SDS011;9019;48.132;-1.210;2023-07-31T13:44:17;3.25;;;2.15;;
17790;SDS011;9019;48.132;-1.210;2023-07-31T13:46:44;4.57;;;2.42;;
17790;SDS011;9019;48.132;-1.210;2023-07-31T13:49:11;4.13;;;2.38;;
17790;SDS011;9019;48.132;-1.210;2023-07-31T13:51:39;5.95;;;2.40;;
17790;SDS011;9019;48.132;-1.210;2023-07-31T13:54:06;2.90;;;2.38;;
17790;SDS011;9019;48.132;-1.210;2023-07-31T13:56:33;4.53;;;2.45;;
17790;SDS011;9019;48.132;-1.210;2023-07-31T13:59:00;4.03;;;2.85;;
17790;SDS011;9019;48.132;-1.210;2023-07-31T14:01:29;4.40;;;2.50;;
17790;SDS011;9019;48.132;-1.210;2023-07-31T14:03:56;4.55;;;2.60;;
17790;SDS011;9019;48.132;-1.210;2023-07-31T14:06:24;3.60;;;2.60;;
17790;SDS011;9019;48.132;-1.210;2023-07-31T14:08:51;4.78;;;2.47;;
17790;SDS011;9019;48.132;-1.210;2023-07-31T14:11:18;4.55;;;2.78;;
17790;SDS011;9019;48.132;-1.210;2023-07-31T14:13:45;5.57;;;2.72;;
17790;SDS011;9019;48.132;-1.210;2023-07-31T14:16:13;5.07;;;3.22;;
17790;SDS011;9019;48.132;-1.210;2023-07-31T14:18:42;5.78;;;3.45;;
17790;SDS011;9019;48.132;-1.210;2023-07-31T14:21:10;6.72;;;3.50;;
17790;SDS011;9019;48.132;-1.210;2023-07-31T14:23:37;5.18;;;3.75;;
17790;SDS011;9019;48.132;-1.210;2023-07-31T14:26:05;6.72;;;3.70;;
17790;SDS011;9019;48.132;-1.210;2023-07-31T14:28:32;5.80;;;3.70;;
17790;SDS011;9019;48.132;-1.210;2023-07-31T14:30:59;5.65;;;3.70;;
17790;SDS011;9019;48.132;-1.210;2023-07-31T14:33:26;6.28;;;4.22;;
17790;SDS011;9019;48.132;-1.210;2023-07-31T14:35:55;7.35;;;4.00;;
17790;SDS011;9019;48.132;-1.210;2023-07-31T14:38:22;6.60;;;4.00;;
17790;SDS011;9019;48.132;-1.210;2023-07-31T14:40:49;4.20;;;3.45;;
17790;SDS011;9019;48.132;-1.210;2023-07-31T14:43:17;6.47;;;3.30;;
17790;SDS011;9019;48.132;-1.210;2023-07-31T14:45:44;7.80;;;3.70;;